Time;durP1;ratioP1;P1;durP2;ratioP2;P2;SDS_P1;SDS_P2;PMS_P1;PMS_P2;Temp;Humidity;BMP_temperature;BMP_pressure;BME280_temperature;BME280_humidity;BME280_pressure;Samples;Min_cycle;Max_cycle;Signal;HPM_P1;HPM_P2
2024/02/10 00:01:07;;;;;;;1.70;1.60;;;11.00;99.90;;;-141.84;100.00;114957.72;5033936;28;20225;-54
2024/02/10 00:03:39;;;;;;;2.63;1.73;;;10.90;99.90;;;-141.84;100.00;113625.81;5037675;28;20225;-55
2024/02/10 00:06:08;;;;;;;2.10;1.90;;;10.90;99.90;;;-141.84;100.00;115490.59;5047456;28;20237;-53
2024/02/10 00:08:37;;;;;;;2.40;1.63;;;10.90;99.90;;;-141.84;100.00;117889.44;5039135;28;20222;-55
2024/02/10 00:11:06;;;;;;;3.20;1.77;;;10.80;99.90;;;-141.84;100.00;118956.03;5033093;28;20650;-53
2024/02/10 00:13:35;;;;;;;1.97;1.50;;;10.80;99.90;;;-141.84;100.00;119222.75;5039513;28;20194;-53
2024/02/10 00:16:08;;;;;;;1.70;1.53;;;10.70;99.90;;;-141.84;100.00;117356.25;5034987;28;20292;-52
2024/02/10 00:18:40;;;;;;;2.90;2.00;;;10.80;99.90;;;-141.84;100.00;117089.69;5033881;28;20217;-53
2024/02/10 00:21:09;;;;;;;2.57;1.97;;;10.80;99.90;;;-141.84;100.00;112028.13;5040784;28;20651;-54
2024/02/10 00:23:38;;;;;;;2.83;1.80;;;11.00;99.90;;;-141.84;100.00;114158.53;5044039;28;20214;-54
2024/02/10 00:26:06;;;;;;;3.43;1.87;;;10.90;99.90;;;-141.84;100.00;114957.72;5030626;28;20203;-53
2024/02/10 00:28:35;;;;;;;2.27;1.47;;;10.90;99.90;;;-141.84;100.00;117089.69;5041490;28;20201;-52
2024/02/10 00:31:04;;;;;;;1.80;1.47;;;10.90;99.90;;;-141.84;100.00;116556.59;5041096;28;20316;-56
2024/02/10 00:33:34;;;;;;;2.17;1.80;;;10.90;99.90;;;-141.84;100.00;116556.59;5039354;28;20305;-54
2024/02/10 00:36:04;;;;;;;1.60;1.50;;;10.90;99.90;;;-141.84;100.00;117622.84;5033990;28;20216;-53
2024/02/10 00:38:32;;;;;;;2.70;1.80;;;10.90;99.90;;;-141.84;100.00;117889.44;5041256;28;20252;-53
2024/02/10 00:41:03;;;;;;;2.03;1.70;;;10.90;99.90;;;-141.84;100.00;119224.81;5040429;28;20317;-54
2024/02/10 00:43:31;;;;;;;2.33;1.67;;;10.80;99.90;;;-141.84;100.00;119224.81;5041462;28;20247;-53
2024/02/10 00:46:00;;;;;;;2.03;1.83;;;10.80;99.90;;;-141.84;100.00;119224.81;5033225;28;20233;-50
2024/02/10 00:48:28;;;;;;;2.70;1.80;;;10.70;99.90;;;-141.84;100.00;119224.81;5046178;28;20260;-54
2024/02/10 00:51:00;;;;;;;2.67;2.00;;;10.70;99.90;;;-141.84;100.00;119224.81;5030615;28;20230;-54
2024/02/10 00:53:30;;;;;;;2.00;1.80;;;10.60;99.90;;;-141.84;100.00;119224.81;5036901;28;20218;-56
2024/02/10 00:55:58;;;;;;;2.10;1.80;;;10.50;99.90;;;-141.84;100.00;119224.81;5039497;28;20704;-50
2024/02/10 00:58:28;;;;;;;3.27;1.97;;;10.50;99.90;;;-141.84;100.00;119224.81;5040265;28;20292;-54
2024/02/10 01:00:57;;;;;;;2.77;1.87;;;10.40;99.90;;;-141.84;100.00;119224.81;5040031;28;20229;-55
2024/02/10 01:03:25;;;;;;;2.50;1.73;;;10.50;99.90;;;-141.84;100.00;119224.81;5042079;28;20221;-55
2024/02/10 01:05:55;;;;;;;1.90;1.70;;;10.50;99.90;;;-141.84;100.00;119224.81;5040485;28;20693;-54
2024/02/10 01:08:23;;;;;;;2.33;1.90;;;10.40;99.90;;;-141.84;100.00;119224.81;5040413;28;20245;-55
2024/02/10 01:10:53;;;;;;;3.20;2.10;;;10.40;99.90;;;-141.84;100.00;119224.81;5042945;28;20294;-57
2024/02/10 01:13:23;;;;;;;2.07;1.87;;;10.40;99.90;;;-141.84;100.00;119224.81;5045458;28;20201;-53
2024/02/10 01:15:54;;;;;;;2.53;2.10;;;10.40;99.90;;;-141.84;100.00;119224.81;5040554;28;20249;-55
2024/02/10 01:18:23;;;;;;;2.27;2.07;;;10.40;99.90;;;-141.84;100.00;119224.81;5040612;28;20256;-55
2024/02/10 01:20:51;;;;;;;2.60;2.10;;;10.40;99.90;;;-141.84;100.00;119224.81;5040039;28;20249;-53
2024/02/10 01:23:19;;;;;;;1.87;1.77;;;10.30;99.90;;;-141.84;100.00;119224.81;5044104;28;20693;-53
2024/02/10 01:25:54;;;;;;;3.30;2.27;;;10.20;99.90;;;-141.84;100.00;119224.81;5041314;28;20225;-52
2024/02/10 01:28:24;;;;;;;3.30;2.03;;;10.30;99.90;;;-141.84;100.00;119224.81;5040654;28;20572;-54
2024/02/10 01:30:52;;;;;;;3.17;2.23;;;10.30;99.90;;;-141.84;100.00;119224.81;5040815;28;20558;-55
2024/02/10 01:33:21;;;;;;;2.23;1.80;;;10.30;99.90;;;-141.84;100.00;119224.81;5040787;28;20288;-55
2024/02/10 01:35:49;;;;;;;2.90;1.90;;;10.30;99.90;;;-141.84;100.00;119224.81;5038308;28;20226;-52
2024/02/10 01:38:17;;;;;;;2.87;2.47;;;10.20;99.90;;;-141.84;100.00;119224.81;5037604;28;20256;-53
2024/02/10 01:40:46;;;;;;;3.00;2.23;;;10.20;99.90;;;-141.84;100.00;119224.81;5039914;28;20313;-58
2024/02/10 01:43:14;;;;;;;3.00;1.90;;;10.20;99.90;;;-141.84;100.00;119224.81;5029371;28;20378;-54
2024/02/10 01:45:45;;;;;;;2.57;2.27;;;10.30;99.90;;;-141.84;100.00;119224.81;5040720;28;20618;-54
2024/02/10 01:48:13;;;;;;;2.70;2.37;;;10.30;99.90;;;-141.84;100.00;119224.81;5041846;28;20230;-56
2024/02/10 01:50:42;;;;;;;4.40;2.13;;;10.20;99.90;;;-141.84;100.00;119224.81;5043853;28;20296;-54
2024/02/10 01:53:11;;;;;;;2.87;2.20;;;10.10;99.90;;;-141.84;100.00;119224.81;5043985;28;20197;-53
2024/02/10 01:55:39;;;;;;;2.60;2.13;;;10.10;99.90;;;-141.84;100.00;119224.81;5042785;28;20220;-56
2024/02/10 01:58:11;;;;;;;3.20;2.20;;;10.00;99.90;;;-141.84;100.00;119224.81;5041056;28;20582;-56
2024/02/10 02:00:40;;;;;;;2.67;2.47;;;10.00;99.90;;;-141.84;100.00;119224.81;5044141;28;20233;-56
2024/02/10 02:03:10;;;;;;;3.20;2.07;;;9.90;99.90;;;-141.84;100.00;119224.81;5043072;28;20233;-55
2024/02/10 02:05:39;;;;;;;2.67;2.47;;;9.90;99.90;;;-141.84;100.00;119224.81;5043497;28;20296;-55
2024/02/10 02:08:08;;;;;;;3.67;2.50;;;9.90;99.90;;;-141.84;100.00;119224.81;5048744;28;20205;-55
2024/02/10 02:10:38;;;;;;;2.90;2.70;;;9.80;99.90;;;-141.84;100.00;119224.81;5041123;28;20191;-54
2024/02/10 02:13:07;;;;;;;3.20;2.80;;;9.80;99.90;;;-141.84;100.00;119224.81;5048342;28;20221;-53
2024/02/10 02:15:35;;;;;;;4.27;3.33;;;9.80;99.90;;;-141.84;100.00;119224.81;5042931;28;20249;-55
2024/02/10 02:18:04;;;;;;;3.50;3.20;;;9.80;99.90;;;-141.84;100.00;119224.81;5041447;28;20252;-54
2024/02/10 02:20:33;;;;;;;4.07;3.10;;;9.80;99.90;;;-141.84;100.00;119224.81;5048293;28;20225;-54
2024/02/10 02:23:05;;;;;;;3.47;2.90;;;9.80;99.90;;;-141.84;100.00;119224.81;5042863;28;20633;-56
2024/02/10 02:25:34;;;;;;;4.80;3.77;;;9.80;99.90;;;-141.84;100.00;119224.81;5038738;28;20229;-55
2024/02/10 02:28:03;;;;;;;3.80;3.40;;;9.80;99.90;;;-141.84;100.00;119224.81;5040437;28;20233;-55
2024/02/10 02:30:35;;;;;;;4.23;3.20;;;9.70;99.90;;;-141.84;100.00;119224.81;5040390;28;20247;-53
2024/02/10 02:33:10;;;;;;;4.73;3.13;;;9.80;99.90;;;-141.84;100.00;119224.81;5040481;28;20248;-55
2024/02/10 02:35:40;;;;;;;4.40;3.80;;;9.70;99.90;;;-141.84;100.00;119224.81;5048910;28;20681;-54
2024/02/10 02:38:09;;;;;;;4.93;3.57;;;9.70;99.90;;;-141.84;100.00;119224.81;5036788;28;20292;-54
2024/02/10 02:40:38;;;;;;;6.30;4.00;;;9.70;99.90;;;-141.84;100.00;119224.81;5043116;28;20229;-55
2024/02/10 02:43:08;;;;;;;4.20;3.40;;;9.80;99.90;;;-141.84;100.00;119224.81;5048518;28;20256;-56
2024/02/10 02:45:37;;;;;;;6.63;3.20;;;9.70;99.90;;;-141.84;100.00;119224.81;5040168;28;20225;-51
2024/02/10 02:48:07;;;;;;;4.07;3.67;;;9.70;99.90;;;-141.84;100.00;119224.81;5040492;28;20272;-55
2024/02/10 02:50:37;;;;;;;5.73;3.77;;;9.70;99.90;;;-141.84;100.00;119224.81;5040419;28;20253;-55
2024/02/10 02:53:05;;;;;;;4.67;3.70;;;9.60;99.90;;;-141.84;100.00;119224.81;5040451;28;20668;-51
2024/02/10 02:55:35;;;;;;;4.70;3.70;;;9.60;99.90;;;-141.84;100.00;119224.81;5041165;28;20209;-53
2024/02/10 02:58:09;;;;;;;3.57;3.17;;;9.50;99.90;;;-141.84;100.00;119224.81;5042612;28;20229;-56
2024/02/10 03:00:38;;;;;;;6.13;3.60;;;9.50;99.90;;;-141.84;100.00;119224.81;5042945;28;20213;-54
2024/02/10 03:03:07;;;;;;;4.10;3.70;;;9.40;99.90;;;-141.84;100.00;119224.81;5039694;28;20834;-55
2024/02/10 03:05:35;;;;;;;4.47;3.60;;;9.50;99.90;;;-141.84;100.00;119224.81;5042584;28;20229;-53
2024/02/10 03:08:06;;;;;;;4.93;3.40;;;9.40;99.90;;;-141.84;100.00;119224.81;5041792;28;20564;-53
2024/02/10 03:10:37;;;;;;;4.30;3.90;;;9.40;99.90;;;-141.84;100.00;119224.81;5040059;28;20673;-56
2024/02/10 03:13:05;;;;;;;3.47;3.17;;;9.40;99.90;;;-141.84;100.00;119224.81;5045047;28;20238;-53
2024/02/10 03:15:38;;;;;;;4.70;3.40;;;9.30;99.90;;;-141.84;100.00;119224.81;5041235;28;20257;-54
2024/02/10 03:18:07;;;;;;;4.40;3.20;;;9.30;99.90;;;-141.84;100.00;119224.81;5041703;28;20217;-52
2024/02/10 03:20:36;;;;;;;4.70;3.90;;;9.30;99.90;;;-141.84;100.00;119224.81;5033706;28;20647;-55
2024/02/10 03:23:04;;;;;;;3.80;3.50;;;9.40;99.90;;;-141.84;100.00;119224.81;5041249;28;20317;-56
2024/02/10 03:25:32;;;;;;;4.07;3.67;;;9.40;99.90;;;-141.84;100.00;119224.81;5042304;28;20228;-55
2024/02/10 03:28:03;;;;;;;4.53;3.63;;;9.40;99.90;;;-141.84;100.00;119224.81;5039156;28;20244;-56
2024/02/10 03:30:32;;;;;;;4.40;3.80;;;9.40;99.90;;;-141.84;100.00;119224.81;5042862;28;20225;-56
2024/02/10 03:33:01;;;;;;;5.63;3.70;;;9.50;99.90;;;-141.84;100.00;119224.81;5040711;28;20227;-54
2024/02/10 03:35:31;;;;;;;4.13;3.40;;;9.50;99.90;;;-141.84;100.00;119224.81;5039646;28;20216;-55
2024/02/10 03:37:59;;;;;;;4.03;3.57;;;9.50;99.90;;;-141.84;100.00;119224.81;5037807;28;20241;-55
2024/02/10 03:40:28;;;;;;;5.97;3.83;;;9.50;99.90;;;-141.84;100.00;119224.81;5038268;28;20692;-56
2024/02/10 03:42:57;;;;;;;4.23;3.40;;;9.50;99.90;;;-141.84;100.00;119224.81;5046107;28;20334;-54
2024/02/10 03:45:30;;;;;;;4.97;3.50;;;9.50;99.90;;;-141.84;100.00;119224.81;5037914;28;20752;-53
2024/02/10 03:48:05;;;;;;;4.80;3.47;;;9.50;99.90;;;-141.84;100.00;119224.81;5039846;28;20252;-57
2024/02/10 03:50:34;;;;;;;3.93;3.30;;;9.50;99.90;;;-141.84;100.00;119224.81;5032914;28;20212;-56
2024/02/10 03:53:02;;;;;;;4.60;3.60;;;9.40;99.90;;;-141.84;100.00;119224.81;5040621;28;20276;-55
2024/02/10 03:55:31;;;;;;;3.77;3.17;;;9.40;99.90;;;-141.84;100.00;119224.81;5039561;28;20232;-59
2024/02/10 03:57:59;;;;;;;3.83;3.47;;;9.30;99.90;;;-141.84;100.00;119224.81;5037582;28;20226;-53
2024/02/10 04:00:29;;;;;;;3.80;3.30;;;9.30;99.90;;;-141.84;100.00;119224.81;5044466;28;20274;-52
2024/02/10 04:02:57;;;;;;;5.67;2.93;;;9.30;99.90;;;-141.84;100.00;119224.81;5038282;28;20327;-55
2024/02/10 04:05:33;;;;;;;3.67;3.10;;;9.20;99.90;;;-141.84;100.00;119224.81;5038641;28;20249;-56
2024/02/10 04:08:01;;;;;;;3.50;3.10;;;9.20;99.90;;;-141.84;100.00;119224.81;5036808;28;20225;-54
2024/02/10 04:10:29;;;;;;;3.43;3.13;;;9.20;99.90;;;-141.84;100.00;119224.81;5038512;28;20194;-53
2024/02/10 04:12:58;;;;;;;4.17;3.23;;;9.20;99.90;;;-141.84;100.00;119224.81;5041042;28;20225;-55
2024/02/10 04:15:27;;;;;;;3.90;2.90;;;9.20;99.90;;;-141.84;100.00;119224.81;5037692;28;20258;-56
2024/02/10 04:17:56;;;;;;;3.20;2.90;;;9.20;99.90;;;-141.84;100.00;119224.81;5040058;28;20698;-54
2024/02/10 04:20:25;;;;;;;4.53;2.83;;;9.20;99.90;;;-141.84;100.00;119224.81;5040457;28;20217;-55
2024/02/10 04:22:57;;;;;;;3.07;2.70;;;9.30;99.90;;;-141.84;100.00;119224.81;5045452;28;20256;-55
2024/02/10 04:25:30;;;;;;;3.60;3.10;;;9.40;99.90;;;-141.84;100.00;119224.81;5040759;28;20192;-55
2024/02/10 04:28:02;;;;;;;3.97;3.50;;;9.40;99.90;;;-141.84;100.00;119224.81;5039452;28;20304;-55
2024/02/10 04:30:31;;;;;;;3.33;2.60;;;9.40;99.90;;;-141.84;100.00;119224.81;5037108;28;20228;-53
2024/02/10 04:33:01;;;;;;;3.07;2.77;;;9.40;99.90;;;-141.84;100.00;119224.81;5042516;28;20715;-52
2024/02/10 04:35:30;;;;;;;3.23;2.80;;;9.40;99.90;;;-141.84;100.00;119224.81;5039005;28;20322;-51
2024/02/10 04:38:02;;;;;;;4.13;2.57;;;9.40;99.90;;;-141.84;100.00;119224.81;5037148;28;20198;-50
2024/02/10 04:40:30;;;;;;;5.17;3.20;;;9.50;99.90;;;-141.84;100.00;119224.81;5037874;28;20194;-55
2024/02/10 04:42:59;;;;;;;3.00;2.70;;;9.50;99.90;;;-141.84;100.00;119224.81;5045380;28;20221;-53
2024/02/10 04:45:30;;;;;;;2.57;2.37;;;9.50;99.90;;;-141.84;100.00;119224.81;5037212;28;20226;-54
2024/02/10 04:48:02;;;;;;;3.43;2.97;;;9.40;99.90;;;-141.84;100.00;119224.81;5037096;28;20222;-55
2024/02/10 04:50:32;;;;;;;2.80;2.60;;;9.40;99.90;;;-141.84;100.00;119224.81;5037328;28;20565;-57
2024/02/10 04:53:00;;;;;;;4.07;2.73;;;9.40;99.90;;;-141.84;100.00;119224.81;5036820;28;20190;-56
2024/02/10 04:55:29;;;;;;;2.43;2.23;;;9.50;99.90;;;-141.84;100.00;119224.81;5040018;28;20212;-56
2024/02/10 04:57:57;;;;;;;2.83;2.63;;;9.50;99.90;;;-141.84;100.00;119224.81;5039369;28;20232;-54
2024/02/10 05:00:25;;;;;;;3.43;2.70;;;9.50;99.90;;;-141.84;100.00;119224.81;5039625;28;20261;-49
2024/02/10 05:02:53;;;;;;;3.83;2.60;;;9.50;99.90;;;-141.84;100.00;119224.81;5037718;28;20405;-52
2024/02/10 05:05:23;;;;;;;3.00;2.50;;;9.50;99.90;;;-141.84;100.00;119224.81;5037082;28;20482;-53
2024/02/10 05:07:53;;;;;;;2.63;2.40;;;9.50;99.90;;;-141.84;100.00;119224.81;5038465;28;20521;-59
2024/02/10 05:10:22;;;;;;;3.57;2.50;;;9.50;99.90;;;-141.84;100.00;119224.81;5037726;28;20190;-57
2024/02/10 05:12:55;;;;;;;3.20;2.60;;;9.40;99.90;;;-141.84;100.00;119224.81;5040219;28;20217;-57
2024/02/10 05:15:26;;;;;;;3.23;2.57;;;9.40;99.90;;;-141.84;100.00;119224.81;5037667;28;20761;-56
2024/02/10 05:17:55;;;;;;;3.80;2.50;;;9.40;99.90;;;-141.84;100.00;119224.81;5040027;28;20271;-53
2024/02/10 05:20:26;;;;;;;3.47;2.20;;;9.50;99.90;;;-141.84;100.00;119224.81;5043429;28;20717;-56
2024/02/10 05:22:57;;;;;;;4.47;2.30;;;9.50;99.90;;;-141.84;100.00;119224.81;5044150;28;20307;-53
2024/02/10 05:25:30;;;;;;;2.27;2.00;;;9.40;99.90;;;-141.84;100.00;119224.81;5046046;28;20201;-55
2024/02/10 05:28:00;;;;;;;2.40;2.20;;;9.50;99.90;;;-141.84;100.00;119224.81;5049772;28;20351;-56
2024/02/10 05:30:29;;;;;;;2.83;2.20;;;9.50;99.90;;;-141.84;100.00;119224.81;5040274;28;20710;-52
2024/02/10 05:33:01;;;;;;;2.10;1.90;;;9.50;99.90;;;-141.84;100.00;119224.81;5040254;28;20753;-55
2024/02/10 05:35:32;;;;;;;2.77;2.03;;;9.60;99.90;;;-141.84;100.00;119224.81;5042113;28;20308;-56
2024/02/10 05:38:03;;;;;;;2.30;2.10;;;9.60;99.90;;;-141.84;100.00;119224.81;5043218;28;20194;-56
2024/02/10 05:40:32;;;;;;;2.77;1.90;;;9.60;99.90;;;-141.84;100.00;119224.81;5043555;28;20186;-54
2024/02/10 05:43:04;;;;;;;3.40;2.03;;;9.60;99.90;;;-141.84;100.00;119224.81;5049130;28;20221;-56
2024/02/10 05:45:34;;;;;;;2.10;1.90;;;9.50;99.90;;;-141.84;100.00;119224.81;5038869;28;20291;-56
2024/02/10 05:48:03;;;;;;;2.47;1.90;;;9.60;99.90;;;-141.84;100.00;119224.81;5041012;28;20226;-54
2024/02/10 05:50:36;;;;;;;3.77;2.30;;;9.50;99.90;;;-141.84;100.00;119224.81;5042926;28;20240;-54
2024/02/10 05:53:06;;;;;;;2.40;2.00;;;9.50;99.90;;;-141.84;100.00;119224.81;5050798;28;20194;-54
2024/02/10 05:55:34;;;;;;;2.40;2.20;;;9.50;99.90;;;-141.84;100.00;119224.81;5040704;28;20723;-54
2024/02/10 05:58:04;;;;;;;3.90;2.10;;;9.50;99.90;;;-141.84;100.00;119224.81;5039961;28;20226;-54
2024/02/10 06:00:33;;;;;;;2.67;2.33;;;9.50;99.90;;;-141.84;100.00;119224.81;5040033;28;20222;-55
2024/02/10 06:03:04;;;;;;;3.20;2.40;;;9.50;99.90;;;-141.84;100.00;119224.81;5040316;28;20309;-56
2024/02/10 06:05:34;;;;;;;2.67;2.47;;;9.50;99.90;;;-141.84;100.00;119224.81;5040593;28;20783;-53
2024/02/10 06:08:03;;;;;;;3.40;2.67;;;9.50;99.90;;;-141.84;100.00;119224.81;5040568;28;20436;-55
2024/02/10 06:10:32;;;;;;;3.40;2.60;;;9.50;99.90;;;-141.84;100.00;119224.81;5042985;28;20198;-52
2024/02/10 06:13:00;;;;;;;2.83;2.53;;;9.50;99.90;;;-141.84;100.00;119224.81;5043083;28;20230;-54
2024/02/10 06:15:29;;;;;;;3.53;2.40;;;9.50;99.90;;;-141.84;100.00;119224.81;5041330;28;20653;-54
2024/02/10 06:18:03;;;;;;;3.60;2.53;;;9.50;99.90;;;-141.84;100.00;119224.81;5042209;28;20734;-52
2024/02/10 06:20:32;;;;;;;2.87;2.43;;;9.50;99.90;;;-141.84;100.00;119224.81;5045326;28;20224;-54
2024/02/10 06:23:03;;;;;;;2.67;2.40;;;9.50;99.90;;;-141.84;100.00;119224.81;5044870;28;20276;-51
2024/02/10 06:25:31;;;;;;;3.27;2.53;;;9.50;99.90;;;-141.84;100.00;119224.81;5045091;28;20670;-52
2024/02/10 06:28:01;;;;;;;2.80;2.53;;;9.50;99.90;;;-141.84;100.00;119224.81;5040641;28;20221;-55
2024/02/10 06:30:32;;;;;;;3.10;2.90;;;9.50;99.90;;;-141.84;100.00;119224.81;5038729;28;20218;-54
2024/02/10 06:33:03;;;;;;;3.60;2.73;;;9.50;99.90;;;-141.84;100.00;119224.81;5039230;28;20226;-53
2024/02/10 06:35:32;;;;;;;3.80;2.70;;;9.50;99.90;;;-141.84;100.00;119224.81;5041661;28;20218;-54
2024/02/10 06:38:02;;;;;;;3.17;2.87;;;9.60;99.90;;;-141.84;100.00;119224.81;5042016;28;20243;-54
2024/02/10 06:40:30;;;;;;;4.40;2.67;;;9.50;99.90;;;-141.84;100.00;119224.81;5042061;28;20610;-54
2024/02/10 06:43:00;;;;;;;5.00;2.87;;;9.50;99.90;;;-141.84;100.00;119224.81;5045675;28;20291;-54
2024/02/10 06:45:30;;;;;;;5.47;2.60;;;9.50;99.90;;;-141.84;100.00;119224.81;5038642;28;20344;-54
2024/02/10 06:47:58;;;;;;;3.37;3.07;;;9.50;99.90;;;-141.84;100.00;119224.81;5041585;28;20240;-51
2024/02/10 06:50:28;;;;;;;3.13;2.60;;;9.60;99.90;;;-141.84;100.00;119224.81;5041506;28;20225;-54
2024/02/10 06:52:59;;;;;;;3.13;2.83;;;9.60;99.90;;;-141.84;100.00;119224.81;5041900;28;20197;-55
2024/02/10 06:55:30;;;;;;;3.13;2.93;;;9.60;99.90;;;-141.84;100.00;119224.81;5039673;28;20687;-56
2024/02/10 06:58:02;;;;;;;4.00;3.37;;;9.60;99.90;;;-141.84;100.00;119224.81;5038735;28;20234;-50
2024/02/10 07:00:37;;;;;;;3.63;3.00;;;9.60;99.90;;;-141.84;100.00;119224.81;5038841;28;20222;-55
2024/02/10 07:03:06;;;;;;;4.00;3.27;;;9.70;99.90;;;-141.84;100.00;119224.81;5034228;28;20307;-54
2024/02/10 07:05:34;;;;;;;4.17;3.37;;;9.80;99.90;;;-141.84;100.00;119224.81;5041189;28;20221;-54
2024/02/10 07:08:05;;;;;;;3.87;3.20;;;9.80;99.90;;;-141.84;100.00;119224.81;5039170;28;20229;-52
2024/02/10 07:10:37;;;;;;;4.87;3.33;;;9.80;99.90;;;-141.84;100.00;119224.81;5039228;28;20663;-57
2024/02/10 07:13:07;;;;;;;4.07;3.47;;;9.80;99.90;;;-141.84;100.00;119224.81;5040855;28;20222;-55
2024/02/10 07:15:36;;;;;;;3.80;3.37;;;9.80;99.90;;;-141.84;100.00;119224.81;5038607;28;20222;-56
2024/02/10 07:18:07;;;;;;;4.67;3.67;;;9.90;99.90;;;-141.84;100.00;119224.81;5038447;28;20233;-53
2024/02/10 07:20:36;;;;;;;3.53;3.20;;;9.90;99.90;;;-141.84;100.00;119224.81;5046508;28;20221;-52
2024/02/10 07:23:05;;;;;;;4.10;3.70;;;9.90;99.90;;;-141.84;100.00;119224.81;5042649;28;20210;-57
2024/02/10 07:25:37;;;;;;;3.70;3.30;;;9.90;99.90;;;-141.84;100.00;119224.81;5042401;28;20205;-53
2024/02/10 07:28:08;;;;;;;4.23;3.67;;;10.00;99.90;;;-141.84;100.00;119224.81;5038501;28;20225;-55
2024/02/10 07:30:37;;;;;;;5.10;3.73;;;10.00;99.90;;;-141.84;100.00;119224.81;5038189;28;20264;-56
2024/02/10 07:33:09;;;;;;;3.90;3.50;;;10.00;99.90;;;-141.84;100.00;119224.81;5038211;28;20222;-54
2024/02/10 07:35:40;;;;;;;3.20;3.00;;;10.00;99.90;;;-141.84;100.00;119224.81;5033419;28;20217;-54
2024/02/10 07:38:09;;;;;;;3.50;3.20;;;10.00;99.90;;;-141.84;100.00;119224.81;5040833;28;20229;-56
2024/02/10 07:40:40;;;;;;;5.37;3.93;;;10.10;99.90;;;-141.84;100.00;119224.81;5039517;28;20283;-55
2024/02/10 07:43:12;;;;;;;4.30;3.63;;;10.10;99.90;;;-141.84;100.00;119224.81;5044038;28;20221;-54
2024/02/10 07:45:40;;;;;;;4.10;3.20;;;10.20;99.90;;;-141.84;100.00;119224.81;5041370;28;20573;-57
2024/02/10 07:48:09;;;;;;;6.57;3.40;;;10.20;99.90;;;-141.84;100.00;119224.81;5037899;28;20702;-55
2024/02/10 07:50:41;;;;;;;4.00;3.50;;;10.30;99.90;;;-141.84;100.00;119224.81;5037940;28;20224;-61
2024/02/10 07:53:14;;;;;;;3.40;3.10;;;10.30;99.90;;;-141.84;100.00;119224.81;5038843;28;20194;-53
2024/02/10 07:55:47;;;;;;;4.53;3.37;;;10.30;99.90;;;-141.84;100.00;119224.81;5040788;28;20190;-56
2024/02/10 07:58:16;;;;;;;5.63;3.60;;;10.40;99.90;;;-141.84;100.00;119224.81;5040641;28;20221;-53
2024/02/10 08:00:46;;;;;;;4.30;3.83;;;10.40;99.90;;;-141.84;100.00;119224.81;5037768;28;20283;-56
2024/02/10 08:03:15;;;;;;;6.77;3.30;;;10.50;99.90;;;-141.84;100.00;119224.81;5037739;28;20702;-60
2024/02/10 08:05:46;;;;;;;3.90;3.50;;;10.50;99.90;;;-141.84;100.00;119224.81;5037531;28;20237;-57
2024/02/10 08:08:15;;;;;;;3.83;3.50;;;10.50;99.90;;;-141.84;100.00;119224.81;5040722;28;20241;-54
2024/02/10 08:10:46;;;;;;;3.90;3.33;;;10.60;99.90;;;-141.84;100.00;119224.81;5040748;28;20194;-55
2024/02/10 08:13:14;;;;;;;3.93;3.20;;;10.60;99.90;;;-141.84;100.00;119224.81;5039448;28;20301;-56
2024/02/10 08:15:46;;;;;;;3.80;3.50;;;10.60;99.90;;;-141.84;100.00;119224.81;5040027;28;20267;-52
2024/02/10 08:18:15;;;;;;;4.27;3.37;;;10.60;99.90;;;-141.84;100.00;119224.81;5039991;28;20279;-56
2024/02/10 08:20:43;;;;;;;4.83;3.47;;;10.70;99.90;;;-141.84;100.00;119224.81;5047765;28;20244;-54
2024/02/10 08:23:12;;;;;;;4.80;3.20;;;10.80;99.90;;;-141.84;100.00;119224.81;5039940;28;20253;-56
2024/02/10 08:25:43;;;;;;;3.83;3.20;;;10.80;99.90;;;-141.84;100.00;119224.81;5039762;28;20708;-53
2024/02/10 08:28:14;;;;;;;3.07;2.80;;;10.90;99.90;;;-141.84;100.00;119224.81;5031876;28;20221;-53
2024/02/10 08:30:44;;;;;;;3.43;3.10;;;11.00;99.90;;;-141.84;100.00;119222.75;5039852;28;20301;-54
2024/02/10 08:33:13;;;;;;;4.60;3.50;;;11.00;99.90;;;-141.84;100.00;119222.75;5038270;28;20589;-54
2024/02/10 08:35:42;;;;;;;3.40;2.73;;;11.00;99.90;;;-141.84;100.00;119222.75;5037418;28;20237;-52
2024/02/10 08:38:14;;;;;;;3.47;2.70;;;11.10;99.90;;;-141.84;100.00;119222.75;5037612;28;20303;-54
2024/02/10 08:40:44;;;;;;;3.70;3.13;;;11.20;99.90;;;-141.84;100.00;118156.06;5037214;28;20208;-55
2024/02/10 08:43:14;;;;;;;3.77;3.20;;;11.20;99.90;;;-141.84;100.00;114691.31;5042314;28;20225;-52
2024/02/10 08:45:44;;;;;;;3.53;2.80;;;11.20;99.90;;;-141.84;100.00;114957.72;5037485;28;20253;-52
2024/02/10 08:48:12;;;;;;;3.57;2.97;;;11.20;99.90;;;-141.84;100.00;113093.19;5039663;28;20257;-54
2024/02/10 08:50:41;;;;;;;3.67;3.27;;;11.20;99.90;;;-141.84;100.00;114158.53;5039941;28;20224;-54
2024/02/10 08:53:11;;;;;;;3.53;3.10;;;11.10;99.90;;;-141.84;100.00;115757.06;5039272;28;20716;-53
2024/02/10 08:55:40;;;;;;;3.38;3.00;;;11.10;99.90;;;-141.84;100.00;116290.06;5041963;28;20252;-55
2024/02/10 08:58:08;;;;;;;3.45;3.15;;;11.10;99.90;;;-141.84;100.00;116823.13;5041126;28;20226;-56
2024/02/10 09:00:39;;;;;;;3.40;3.00;;;11.00;99.90;;;-141.84;100.00;117889.44;5043008;28;20287;-54
2024/02/10 09:03:09;;;;;;;4.10;3.07;;;10.90;99.90;;;-141.84;100.00;118422.72;5043687;28;20221;-55
2024/02/10 09:05:39;;;;;;;3.57;3.00;;;10.90;99.90;;;-141.84;100.00;119222.75;5043513;28;20233;-55
2024/02/10 09:08:08;;;;;;;3.23;2.60;;;11.00;99.90;;;-141.84;100.00;119222.75;5040944;28;20222;-52
2024/02/10 09:10:36;;;;;;;3.33;3.03;;;11.10;99.90;;;-141.84;100.00;118956.03;5041738;28;20252;-53
2024/02/10 09:13:05;;;;;;;3.50;3.20;;;11.20;99.90;;;-141.84;100.00;117889.44;5042685;28;20258;-52
2024/02/10 09:15:34;;;;;;;4.60;2.93;;;11.30;99.90;;;-141.84;100.00;114691.31;5042166;28;20272;-51
2024/02/10 09:18:04;;;;;;;5.73;4.17;;;11.30;99.90;;;-141.84;100.00;109100.59;5040806;28;20238;-52
2024/02/10 09:20:32;;;;;;;3.80;3.40;;;11.40;99.90;;;-141.84;100.00;108302.56;5049375;28;20221;-55
2024/02/10 09:23:02;;;;;;;3.73;3.43;;;11.40;99.90;;;-141.84;99.43;106441.06;5043238;28;20205;-55
2024/02/10 09:25:36;;;;;;;4.37;3.60;;;11.40;99.90;;;-141.84;100.00;107770.63;5043745;28;20218;-53
2024/02/10 09:28:05;;;;;;;3.90;3.00;;;11.40;99.90;;;-141.84;100.00;109100.59;5034728;28;20233;-55
2024/02/10 09:30:35;;;;;;;4.27;3.80;;;11.40;99.90;;;-141.84;100.00;107770.63;5040504;28;20221;-55
2024/02/10 09:33:19;;;;;;;5.00;3.63;;;11.40;99.90;;;-141.84;98.23;104314.66;5050028;28;20760;-55
2024/02/10 09:35:48;;;;;;;4.27;3.87;;;11.40;99.90;;;-141.84;96.22;100596.16;5043193;28;20221;-56
2024/02/10 09:38:16;;;;;;;3.73;3.33;;;11.40;99.90;;;-141.84;96.69;100596.16;5049007;28;20245;-54
2024/02/10 09:40:45;;;;;;;4.57;3.20;;;11.30;99.90;;;-141.84;98.51;104048.94;5036192;28;20274;-56
2024/02/10 09:43:16;;;;;;;4.65;3.53;;;11.30;99.90;;;-141.84;100.00;107770.63;5048483;28;20779;-57
2024/02/10 09:45:47;;;;;;;4.27;3.20;;;11.30;99.90;;;-141.84;100.00;109632.72;5050083;28;20226;-56
2024/02/10 09:48:20;;;;;;;5.00;3.73;;;11.20;99.90;;;-141.84;100.00;111761.88;5045684;28;20241;-56
2024/02/10 09:50:49;;;;;;;4.93;3.40;;;11.10;99.90;;;-141.84;100.00;113093.19;5044533;28;20225;-56
2024/02/10 09:53:17;;;;;;;5.97;3.60;;;11.20;99.90;;;-141.84;100.00;112560.63;5049552;28;21114;-55
2024/02/10 09:55:46;;;;;;;4.70;3.10;;;11.10;99.90;;;-141.84;100.00;111229.50;5043138;28;20213;-53
2024/02/10 09:58:16;;;;;;;3.13;2.70;;;11.40;99.90;;;-141.84;100.00;112294.34;5042569;28;20640;-55
2024/02/10 10:00:47;;;;;;;4.93;3.00;;;11.20;99.90;;;-141.84;100.00;112560.63;5041038;28;20218;-55
2024/02/10 10:03:17;;;;;;;4.50;3.40;;;11.30;99.90;;;-141.84;100.00;110697.16;5040613;28;20245;-54
2024/02/10 10:05:47;;;;;;;3.60;3.30;;;11.40;99.90;;;-141.84;97.94;104580.41;5041179;28;20294;-54
2024/02/10 10:08:21;;;;;;;4.67;3.80;;;11.50;99.90;;;-141.84;94.88;99799.78;5042435;28;20762;-56